createdAt,value
2023-03-27T00:00:35.608Z,95632.53
2023-03-27T00:03:08.307Z,95634.38
2023-03-27T00:05:40.698Z,95636.63
2023-03-27T00:08:13.460Z,95628.53
2023-03-27T00:10:48.175Z,95641.41
2023-03-27T00:13:19.739Z,95649.31
2023-03-27T00:15:54.542Z,95636.78
2023-03-27T00:18:28.066Z,95633.81
2023-03-27T00:21:03.497Z,95644.94
2023-03-27T00:23:34.953Z,95640.03
2023-03-27T00:26:06.915Z,95648.09
2023-03-27T00:28:38.522Z,95646.09
2023-03-27T00:31:15.987Z,95648.53
2023-03-27T00:33:47.563Z,95641.69
2023-03-27T00:36:19.117Z,95636.81
2023-03-27T00:38:53.174Z,95641.63
2023-03-27T00:41:25.646Z,95640.34
2023-03-27T00:43:58.202Z,95636.28
2023-03-27T00:46:44.892Z,95641.91
2023-03-27T00:49:16.888Z,95644.03
2023-03-27T00:51:51.118Z,95644.66
2023-03-27T00:54:29.990Z,95649.56
2023-03-27T00:57:07.171Z,95643.06
2023-03-27T00:59:41.408Z,95637.16
2023-03-27T01:02:13.793Z,95634.06
2023-03-27T01:04:47.352Z,95629.78
2023-03-27T01:07:20.824Z,95631.28
2023-03-27T01:09:52.576Z,95641.94
2023-03-27T01:12:34.288Z,95632.06
2023-03-27T01:15:17.469Z,95629.00
2023-03-27T01:18:17.277Z,95638.66
2023-03-27T01:21:26.050Z,95646.75
2023-03-27T01:24:28.013Z,95649.28
2023-03-27T01:27:31.108Z,95638.41
2023-03-27T01:30:20.194Z,95646.78
2023-03-27T01:33:00.867Z,95648.28
2023-03-27T01:36:08.645Z,95651.59
2023-03-27T01:39:36.886Z,95645.22
2023-03-27T01:42:29.908Z,95652.06
2023-03-27T01:45:17.529Z,95657.41
2023-03-27T01:48:17.041Z,95657.94
2023-03-27T01:51:06.823Z,95660.94
2023-03-27T01:53:46.650Z,95666.53
2023-03-27T01:56:32.352Z,95665.50
2023-03-27T01:59:18.009Z,95669.59
2023-03-27T02:02:22.414Z,95680.72
2023-03-27T02:05:10.294Z,95671.59
2023-03-27T02:07:51.455Z,95679.72
2023-03-27T02:10:35.538Z,95679.22
2023-03-27T02:13:23.847Z,95685.81
2023-03-27T02:15:58.449Z,95683.25
2023-03-27T02:18:36.705Z,95692.38
2023-03-27T02:21:08.904Z,95704.81
2023-03-27T02:23:41.037Z,95704.53
2023-03-27T02:26:13.429Z,95711.13
2023-03-27T02:29:35.810Z,95709.88
2023-03-27T02:32:36.069Z,95722.28
2023-03-27T02:35:46.058Z,95720.78
2023-03-27T02:38:27.664Z,95723.31
2023-03-27T02:41:25.914Z,95723.81
2023-03-27T02:44:15.834Z,95734.97
2023-03-27T02:47:07.457Z,95742.03
2023-03-27T02:49:48.432Z,95742.06
2023-03-27T02:52:32.279Z,95759.06
2023-03-27T02:55:12.820Z,95756.53
2023-03-27T02:57:51.806Z,95757.53
2023-03-27T03:00:29.611Z,95756.03
2023-03-27T03:03:37.564Z,95762.84
2023-03-27T03:06:11.064Z,95769.72
2023-03-27T03:08:43.243Z,95773.50
2023-03-27T03:11:15.561Z,95778.06
2023-03-27T03:13:47.240Z,95782.56
2023-03-27T03:16:20.463Z,95793.50
2023-03-27T03:18:52.052Z,95791.25
2023-03-27T03:21:24.364Z,95801.91
2023-03-27T03:23:57.541Z,95804.72
2023-03-27T03:26:30.054Z,95815.63
2023-03-27T03:29:01.986Z,95818.66
2023-03-27T03:31:43.325Z,95824.22
2023-03-27T03:34:18.951Z,95836.91
2023-03-27T03:36:50.739Z,95830.81
2023-03-27T03:39:22.908Z,95849.56
2023-03-27T03:41:54.541Z,95850.06
2023-03-27T03:44:26.368Z,95862.28
2023-03-27T03:46:57.884Z,95861.50
2023-03-27T03:49:29.852Z,95875.41
2023-03-27T03:52:04.858Z,95885.28
2023-03-27T03:54:38.595Z,95892.22
2023-03-27T03:57:10.274Z,95896.28
2023-03-27T03:59:41.869Z,95910.38
2023-03-27T04:02:28.272Z,95908.97
2023-03-27T04:05:00.837Z,95925.69
2023-03-27T04:07:41.059Z,95929.13
2023-03-27T04:10:15.826Z,95929.75
2023-03-27T04:12:51.215Z,95932.84
2023-03-27T04:15:22.801Z,95942.13
2023-03-27T04:17:54.392Z,95946.38
2023-03-27T04:20:31.155Z,95947.34
2023-03-27T04:23:03.074Z,95965.41
2023-03-27T04:25:34.600Z,95955.50
2023-03-27T04:28:06.160Z,95964.72
2023-03-27T04:30:38.699Z,95969.28
2023-03-27T04:33:18.653Z,95984.63
2023-03-27T04:36:05.297Z,95985.16
2023-03-27T04:38:39.585Z,95997.53
2023-03-27T04:41:11.404Z,95999.28
2023-03-27T04:43:46.182Z,96000.00
2023-03-27T04:46:19.845Z,96001.00
2023-03-27T04:48:51.341Z,96011.19
2023-03-27T04:51:25.197Z,96009.47
2023-03-27T04:53:56.682Z,96023.22
2023-03-27T04:56:30.793Z,96034.34
2023-03-27T04:59:06.076Z,96046.63
2023-03-27T05:01:37.685Z,96044.53
2023-03-27T05:04:11.584Z,96037.94
2023-03-27T05:06:43.165Z,96054.94
2023-03-27T05:09:14.676Z,96055.91
2023-03-27T05:11:49.867Z,96060.25
2023-03-27T05:14:23.618Z,96066.63
2023-03-27T05:16:57.723Z,96080.63
2023-03-27T05:19:32.501Z,96081.13
2023-03-27T05:22:04.128Z,96091.28
2023-03-27T05:24:35.739Z,96094.91
2023-03-27T05:27:07.256Z,96105.00
2023-03-27T05:29:47.233Z,96113.00
2023-03-27T05:32:21.320Z,96119.03
2023-03-27T05:34:54.665Z,96128.94
2023-03-27T05:37:29.142Z,96141.06
2023-03-27T05:40:00.671Z,96136.03
2023-03-27T05:42:32.460Z,96139.63
2023-03-27T05:45:04.600Z,96155.38
2023-03-27T05:47:53.800Z,96166.47
2023-03-27T05:50:29.770Z,96170.28
2023-03-27T05:53:10.013Z,96191.69
2023-03-27T05:55:41.822Z,96187.44
2023-03-27T05:58:13.925Z,96188.63
2023-03-27T06:00:45.829Z,96199.97
2023-03-27T06:03:17.717Z,96209.97
2023-03-27T06:05:49.773Z,96220.47
2023-03-27T06:08:21.346Z,96224.00
2023-03-27T06:10:55.909Z,96223.44
2023-03-27T06:13:28.538Z,96231.63
2023-03-27T06:16:00.397Z,96243.38
2023-03-27T06:18:33.690Z,96251.97
2023-03-27T06:21:05.691Z,96259.91
2023-03-27T06:23:37.305Z,96267.03
2023-03-27T06:26:08.970Z,96287.13
2023-03-27T06:28:40.497Z,96287.97
2023-03-27T06:31:12.844Z,96301.47
2023-03-27T06:33:44.495Z,96287.50
2023-03-27T06:36:16.355Z,96304.25
2023-03-27T06:38:47.821Z,96299.69
2023-03-27T06:41:19.311Z,96304.47
2023-03-27T06:43:50.937Z,96314.13
2023-03-27T06:46:27.486Z,96324.81
2023-03-27T06:49:01.726Z,96334.41
2023-03-27T06:51:33.296Z,96341.97
2023-03-27T06:54:04.951Z,96338.75
2023-03-27T06:56:36.613Z,96345.97
2023-03-27T06:59:08.995Z,96361.84
2023-03-27T07:01:40.567Z,96365.47
2023-03-27T07:04:12.353Z,96362.97
2023-03-27T07:06:43.944Z,96373.69
2023-03-27T07:09:15.573Z,96372.16
2023-03-27T07:11:50.229Z,96385.38
2023-03-27T07:14:24.101Z,96388.44
2023-03-27T07:16:55.714Z,96396.22
2023-03-27T07:19:27.292Z,96408.53
2023-03-27T07:21:58.844Z,96405.28
2023-03-27T07:24:30.342Z,96416.09
2023-03-27T07:27:01.831Z,96418.34
2023-03-27T07:29:34.494Z,96424.34
2023-03-27T07:32:09.145Z,96430.50
2023-03-27T07:34:41.142Z,96438.28
2023-03-27T07:37:14.464Z,96443.78
2023-03-27T07:39:46.137Z,96449.47
2023-03-27T07:42:17.713Z,96460.16
2023-03-27T07:44:49.427Z,96455.94
2023-03-27T07:47:21.331Z,96472.97
2023-03-27T07:49:52.879Z,96472.81
2023-03-27T07:52:24.428Z,96484.53
2023-03-27T07:54:56.880Z,96487.31
2023-03-27T07:57:28.522Z,96495.47
2023-03-27T08:00:00.163Z,96486.84
2023-03-27T08:02:34.932Z,96487.38
2023-03-27T08:05:08.580Z,96495.31
2023-03-27T08:07:45.529Z,96503.81
2023-03-27T08:10:17.093Z,96512.97
2023-03-27T08:12:48.746Z,96523.13
2023-03-27T08:15:20.276Z,96527.78
2023-03-27T08:17:54.645Z,96535.97
2023-03-27T08:20:30.371Z,96541.69
2023-03-27T08:23:02.013Z,96548.50
2023-03-27T08:25:34.607Z,96553.81
2023-03-27T08:28:06.237Z,96562.03
2023-03-27T08:30:37.796Z,96564.56
2023-03-27T08:33:09.743Z,96578.78
2023-03-27T08:35:42.170Z,96583.00
2023-03-27T08:38:25.721Z,96600.06
2023-03-27T08:41:01.652Z,96614.03
2023-03-27T08:43:44.288Z,96610.72
2023-03-27T08:46:21.798Z,96615.06
2023-03-27T08:49:25.649Z,96626.38
2023-03-27T08:52:20.162Z,96625.94
2023-03-27T08:55:13.889Z,96636.88
2023-03-27T08:57:52.890Z,96639.41
2023-03-27T09:00:32.104Z,96645.63
2023-03-27T09:03:35.591Z,96642.38
2023-03-27T09:06:34.267Z,96650.72
2023-03-27T09:09:47.980Z,96660.50
2023-03-27T09:13:17.556Z,96659.91
2023-03-27T09:16:22.053Z,96666.78
2023-03-27T09:19:31.254Z,96667.81
2023-03-27T09:22:24.124Z,96678.53
2023-03-27T09:25:03.441Z,96682.88
2023-03-27T09:27:37.806Z,96679.03
2023-03-27T09:30:26.526Z,96689.22
2023-03-27T09:33:06.020Z,96686.56
2023-03-27T09:35:39.769Z,96693.72
2023-03-27T09:38:30.742Z,96696.16
2023-03-27T09:41:13.252Z,96706.56
2023-03-27T09:44:21.203Z,96709.88
2023-03-27T09:47:17.424Z,96712.19
2023-03-27T09:49:57.306Z,96717.81
2023-03-27T09:52:36.527Z,96718.09
2023-03-27T09:55:31.909Z,96727.31
2023-03-27T09:58:28.004Z,96721.19
2023-03-27T10:01:23.067Z,96726.03
2023-03-27T10:04:00.051Z,96725.84
2023-03-27T10:06:49.808Z,96728.91
2023-03-27T10:09:27.860Z,96734.53
2023-03-27T10:12:05.274Z,96737.06
2023-03-27T10:14:42.764Z,96743.53
2023-03-27T10:17:41.860Z,96747.72
2023-03-27T10:20:21.205Z,96753.75
2023-03-27T10:22:57.848Z,96760.34
2023-03-27T10:25:39.413Z,96760.34
2023-03-27T10:28:36.827Z,96770.31
2023-03-27T10:31:36.426Z,96772.06
2023-03-27T10:34:41.397Z,96772.13
2023-03-27T10:37:29.354Z,96777.03
2023-03-27T10:40:09.568Z,96783.19
2023-03-27T10:42:41.556Z,96782.66
2023-03-27T10:45:23.523Z,96791.34
2023-03-27T10:47:59.444Z,96788.69
2023-03-27T10:50:56.596Z,96798.91
2023-03-27T10:53:42.996Z,96788.13
2023-03-27T10:56:33.284Z,96789.38
2023-03-27T10:59:40.626Z,96798.63
2023-03-27T11:02:57.760Z,96802.50
2023-03-27T11:05:37.433Z,96806.06
2023-03-27T11:08:16.790Z,96803.63
2023-03-27T11:10:50.599Z,96812.09
2023-03-27T11:13:32.159Z,96812.03
2023-03-27T11:16:26.419Z,96819.78
2023-03-27T11:19:22.429Z,96822.72
2023-03-27T11:22:01.303Z,96829.72
2023-03-27T11:25:06.132Z,96822.72
2023-03-27T11:28:00.512Z,96823.00
2023-03-27T11:30:44.420Z,96827.91
2023-03-27T11:33:40.693Z,96835.63
2023-03-27T11:36:29.789Z,96840.53
2023-03-27T11:39:18.348Z,96842.41
2023-03-27T11:42:02.389Z,96844.53
2023-03-27T11:44:33.932Z,96849.47
2023-03-27T11:47:20.486Z,96851.16
2023-03-27T11:50:15.004Z,96853.84
2023-03-27T11:53:28.753Z,96858.06
2023-03-27T11:56:31.895Z,96853.59
2023-03-27T11:59:18.977Z,96860.22
2023-03-27T12:02:45.498Z,96855.78
2023-03-27T12:05:48.298Z,96867.63
2023-03-27T12:08:52.562Z,96857.47
2023-03-27T12:11:26.338Z,96863.59
2023-03-27T12:14:18.407Z,96863.13
2023-03-27T12:17:02.994Z,96865.09
2023-03-27T12:20:13.022Z,96866.91
2023-03-27T12:23:23.702Z,96867.63
2023-03-27T12:26:01.233Z,96869.47
2023-03-27T12:29:04.108Z,96873.09
2023-03-27T12:32:27.432Z,96865.94
2023-03-27T12:35:06.451Z,96866.69
2023-03-27T12:37:50.455Z,96862.19
2023-03-27T12:40:35.028Z,96876.75
2023-03-27T12:43:21.912Z,96877.13
2023-03-27T12:46:15.806Z,96874.53
2023-03-27T12:49:05.964Z,96875.38
2023-03-27T12:51:43.784Z,96880.13
2023-03-27T12:54:28.441Z,96878.94
2023-03-27T12:57:13.208Z,96884.97
2023-03-27T13:00:10.280Z,96880.56
2023-03-27T13:03:23.288Z,96893.78
2023-03-27T13:06:36.813Z,96890.63
2023-03-27T13:09:29.322Z,96882.19
2023-03-27T13:12:45.276Z,96889.25
2023-03-27T13:16:09.157Z,96889.72
2023-03-27T13:19:08.733Z,96880.78
2023-03-27T13:22:23.655Z,96887.16
2023-03-27T13:25:59.993Z,96898.28
2023-03-27T13:28:37.896Z,96898.53
2023-03-27T13:31:15.592Z,96901.47
2023-03-27T13:34:07.544Z,96914.41
2023-03-27T13:37:06.485Z,96913.13
2023-03-27T13:39:59.325Z,96910.25
2023-03-27T13:42:32.469Z,96912.28
2023-03-27T13:45:31.215Z,96911.94
2023-03-27T13:48:27.076Z,96913.19
2023-03-27T13:51:16.910Z,96922.94
2023-03-27T13:54:24.026Z,96932.31
2023-03-27T13:57:31.676Z,96928.78
2023-03-27T14:01:01.114Z,96914.94
2023-03-27T14:04:00.753Z,96932.34
2023-03-27T14:07:24.963Z,96932.59
2023-03-27T14:10:47.890Z,96939.50
2023-03-27T14:13:45.818Z,96931.56
2023-03-27T14:17:40.016Z,96939.47
2023-03-27T14:20:39.707Z,96941.81
2023-03-27T14:23:30.691Z,96940.41
2023-03-27T14:26:11.904Z,96948.78
2023-03-27T14:29:02.249Z,96940.72
2023-03-27T14:31:35.821Z,96943.59
2023-03-27T14:34:20.144Z,96952.28
2023-03-27T14:36:52.329Z,96955.34
2023-03-27T14:39:27.901Z,96953.81
2023-03-27T14:42:02.324Z,96958.84
2023-03-27T14:44:33.900Z,96955.19
2023-03-27T14:47:12.886Z,96959.91
2023-03-27T14:49:50.245Z,96959.41
2023-03-27T14:52:30.110Z,96957.03
2023-03-27T14:55:03.874Z,96955.84
2023-03-27T14:57:35.780Z,96950.16
2023-03-27T15:00:16.288Z,96957.81
2023-03-27T15:02:52.246Z,96955.28
2023-03-27T15:05:23.956Z,96953.97
2023-03-27T15:07:55.793Z,96959.97
2023-03-27T15:10:32.165Z,96963.03
2023-03-27T15:13:03.786Z,96961.75
2023-03-27T15:15:39.812Z,96961.19
2023-03-27T15:18:28.279Z,96965.81
2023-03-27T15:21:06.133Z,96962.63
2023-03-27T15:23:45.817Z,96965.25
2023-03-27T15:26:35.086Z,96955.34
2023-03-27T15:29:29.573Z,96943.72
2023-03-27T15:32:08.664Z,96940.38
2023-03-27T15:34:47.866Z,96942.44
2023-03-27T15:37:23.277Z,96941.84
2023-03-27T15:40:36.921Z,96945.09
2023-03-27T15:43:14.818Z,96939.44
2023-03-27T15:46:00.790Z,96928.31
2023-03-27T15:48:45.571Z,96934.56
2023-03-27T15:51:20.282Z,96938.97
2023-03-27T15:53:55.708Z,96948.44
2023-03-27T15:56:43.060Z,96946.84
2023-03-27T15:59:18.500Z,96948.72
2023-03-27T16:02:02.331Z,96951.34
2023-03-27T16:04:58.103Z,96940.56
2023-03-27T16:07:46.475Z,96945.06
2023-03-27T16:10:32.881Z,96952.50
2023-03-27T16:13:06.463Z,96952.41
2023-03-27T16:15:45.494Z,96955.94
2023-03-27T16:18:24.267Z,96959.44
2023-03-27T16:21:13.436Z,96963.59
2023-03-27T16:23:44.988Z,96967.00
2023-03-27T16:26:22.641Z,96963.38
2023-03-27T16:29:01.987Z,96968.53
2023-03-27T16:31:33.585Z,96970.75
2023-03-27T16:34:21.947Z,96967.78
2023-03-27T16:36:53.796Z,96966.03
2023-03-27T16:39:25.551Z,96979.25
2023-03-27T16:41:57.090Z,96975.97
2023-03-27T16:44:28.680Z,96988.28
2023-03-27T16:47:00.258Z,96985.50
2023-03-27T16:49:31.821Z,96991.38
2023-03-27T16:52:04.402Z,96983.94
2023-03-27T16:54:39.084Z,96985.22
2023-03-27T16:57:11.302Z,96989.94
2023-03-27T16:59:42.858Z,96982.53
2023-03-27T17:02:14.375Z,96986.78
2023-03-27T17:04:46.592Z,96987.84
2023-03-27T17:07:22.130Z,96981.66
2023-03-27T17:09:54.110Z,96995.53
2023-03-27T17:12:25.920Z,96996.47
2023-03-27T17:14:59.685Z,97000.97
2023-03-27T17:17:31.799Z,97016.72
2023-03-27T17:20:06.375Z,97007.88
2023-03-27T17:22:41.185Z,97013.09
2023-03-27T17:25:12.806Z,97017.31
2023-03-27T17:27:47.415Z,97018.88
2023-03-27T17:30:30.523Z,97029.47
2023-03-27T17:33:09.516Z,97028.31
2023-03-27T17:35:44.197Z,97034.06
2023-03-27T17:38:19.135Z,97041.66
2023-03-27T17:40:51.438Z,97034.41
2023-03-27T17:43:23.119Z,97046.75
2023-03-27T17:45:54.853Z,97047.72
2023-03-27T17:48:26.952Z,97052.91
2023-03-27T17:51:08.170Z,97051.59
2023-03-27T17:53:41.110Z,97056.44
2023-03-27T17:56:19.825Z,97058.16
2023-03-27T17:58:51.739Z,97067.50
2023-03-27T18:01:24.261Z,97070.06
2023-03-27T18:03:57.822Z,97065.44
2023-03-27T18:06:29.475Z,97075.03
2023-03-27T18:09:01.064Z,97077.44
2023-03-27T18:11:32.651Z,97085.94
2023-03-27T18:14:06.699Z,97085.34
2023-03-27T18:16:38.302Z,97086.88
2023-03-27T18:19:10.039Z,97089.84
2023-03-27T18:21:41.743Z,97096.66
2023-03-27T18:24:13.318Z,97112.13
2023-03-27T18:26:44.833Z,97117.06
2023-03-27T18:29:16.389Z,97120.03
2023-03-27T18:31:48.232Z,97120.31
2023-03-27T18:34:20.033Z,97127.75
2023-03-27T18:36:51.803Z,97133.13
2023-03-27T18:39:25.463Z,97138.91
2023-03-27T18:42:01.446Z,97146.38
2023-03-27T18:44:33.038Z,97151.78
2023-03-27T18:47:04.627Z,97155.25
2023-03-27T18:49:38.783Z,97146.09
2023-03-27T18:52:11.949Z,97154.19
2023-03-27T18:54:43.512Z,97165.28
2023-03-27T18:57:19.995Z,97164.28
2023-03-27T18:59:52.173Z,97173.44
2023-03-27T19:02:24.206Z,97171.63
2023-03-27T19:04:56.029Z,97170.81
2023-03-27T19:07:30.320Z,97179.78
2023-03-27T19:10:02.204Z,97185.00
2023-03-27T19:12:35.048Z,97188.06
2023-03-27T19:15:19.411Z,97193.78
2023-03-27T19:17:52.010Z,97205.97
2023-03-27T19:20:23.693Z,97199.19
2023-03-27T19:22:55.346Z,97193.25
2023-03-27T19:25:27.816Z,97187.66
2023-03-27T19:28:03.459Z,97187.19
2023-03-27T19:30:36.168Z,97183.34
2023-03-27T19:33:08.800Z,97187.78
2023-03-27T19:35:40.930Z,97195.22
2023-03-27T19:38:12.520Z,97197.69
2023-03-27T19:40:45.178Z,97207.91
2023-03-27T19:43:18.037Z,97210.41
2023-03-27T19:46:14.332Z,97207.34
2023-03-27T19:48:49.580Z,97220.31
2023-03-27T19:51:21.408Z,97223.09
2023-03-27T19:53:52.943Z,97228.94
2023-03-27T19:56:24.491Z,97220.31
2023-03-27T19:58:56.189Z,97220.31
2023-03-27T20:01:28.505Z,97223.41
2023-03-27T20:04:00.913Z,97228.25
2023-03-27T20:06:33.916Z,97230.78
2023-03-27T20:09:06.516Z,97224.25
2023-03-27T20:11:38.265Z,97221.50
2023-03-27T20:14:13.229Z,97227.88
2023-03-27T20:16:44.764Z,97229.56
2023-03-27T20:19:16.887Z,97227.25
2023-03-27T20:21:48.323Z,97225.75
2023-03-27T20:24:19.891Z,97227.28
2023-03-27T20:26:54.764Z,97230.66
2023-03-27T20:29:26.492Z,97235.28
2023-03-27T20:31:58.015Z,97237.63
2023-03-27T20:34:29.703Z,97239.53
2023-03-27T20:37:03.511Z,97241.38
2023-03-27T20:39:35.000Z,97244.19
2023-03-27T20:42:09.916Z,97238.41
2023-03-27T20:44:43.994Z,97241.25
2023-03-27T20:47:19.017Z,97244.94
2023-03-27T20:49:50.580Z,97252.69
2023-03-27T20:52:22.855Z,97251.47
2023-03-27T20:54:55.146Z,97253.75
2023-03-27T20:57:26.759Z,97257.84
2023-03-27T20:59:58.269Z,97263.34
2023-03-27T21:02:30.015Z,97275.53
2023-03-27T21:05:02.832Z,97280.41
2023-03-27T21:07:38.044Z,97270.34
2023-03-27T21:10:11.066Z,97275.09
2023-03-27T21:12:42.925Z,97279.06
2023-03-27T21:15:14.951Z,97268.59
2023-03-27T21:17:46.585Z,97279.72
2023-03-27T21:20:18.454Z,97284.13
2023-03-27T21:22:52.693Z,97285.13
2023-03-27T21:25:24.550Z,97279.03
2023-03-27T21:27:56.475Z,97276.88
2023-03-27T21:30:46.571Z,97284.28
2023-03-27T21:33:20.114Z,97286.63
2023-03-27T21:35:51.749Z,97290.22
2023-03-27T21:38:23.387Z,97285.28
2023-03-27T21:40:54.882Z,97281.84
2023-03-27T21:43:26.647Z,97292.91
2023-03-27T21:46:01.713Z,97294.69
2023-03-27T21:48:33.650Z,97300.56
2023-03-27T21:51:08.305Z,97292.53
2023-03-27T21:53:41.148Z,97301.72
2023-03-27T21:56:13.263Z,97300.16
2023-03-27T21:58:44.824Z,97299.59
2023-03-27T22:01:16.572Z,97303.13
2023-03-27T22:03:48.097Z,97311.25
2023-03-27T22:06:19.641Z,97314.91
2023-03-27T22:08:51.212Z,97327.59
2023-03-27T22:11:22.925Z,97329.19
2023-03-27T22:13:55.084Z,97324.16
2023-03-27T22:16:27.084Z,97328.72
2023-03-27T22:18:58.827Z,97333.34
2023-03-27T22:21:31.224Z,97334.94
2023-03-27T22:24:03.154Z,97323.97
2023-03-27T22:26:39.029Z,97336.47
2023-03-27T22:29:10.744Z,97329.56
2023-03-27T22:31:42.346Z,97337.97
2023-03-27T22:34:18.309Z,97337.19
2023-03-27T22:36:50.976Z,97333.41
2023-03-27T22:39:31.444Z,97325.28
2023-03-27T22:42:05.192Z,97324.25
2023-03-27T22:44:37.836Z,97333.81
2023-03-27T22:47:22.920Z,97332.66
2023-03-27T22:50:04.892Z,97334.84
2023-03-27T22:52:47.221Z,97334.47
2023-03-27T22:55:20.335Z,97350.13
2023-03-27T23:01:08.169Z,97351.25
2023-03-27T23:03:55.897Z,97341.28
2023-03-27T23:06:31.305Z,97350.41
2023-03-27T23:09:30.727Z,97351.56
2023-03-27T23:12:19.631Z,97351.25
2023-03-27T23:15:35.118Z,97358.22
2023-03-27T23:18:24.648Z,97353.91
2023-03-27T23:20:58.564Z,97365.53
2023-03-27T23:23:32.618Z,97360.66
2023-03-27T23:26:06.178Z,97366.91
2023-03-27T23:28:40.962Z,97361.34
2023-03-27T23:31:16.405Z,97367.09
2023-03-27T23:33:50.416Z,97371.69
2023-03-27T23:36:24.758Z,97375.78
2023-03-27T23:38:56.621Z,97371.38
2023-03-27T23:41:29.347Z,97371.78
2023-03-27T23:44:01.097Z,97374.47
2023-03-27T23:46:33.788Z,97380.44
2023-03-27T23:49:05.646Z,97374.34
2023-03-27T23:51:37.152Z,97379.53
2023-03-27T23:54:08.764Z,97388.19
2023-03-27T23:56:40.296Z,97390.81
2023-03-27T23:59:12.035Z,97386.13
